Time;durP1;ratioP1;P1;durP2;ratioP2;P2;SDS_P1;SDS_P2;PMS_P1;PMS_P2;Temp;Humidity;BMP_temperature;BMP_pressure;BME280_temperature;BME280_humidity;BME280_pressure;Samples;Min_cycle;Max_cycle;Signal;HPM_P1;HPM_P2
2022/02/05 00:02:55;;;;;;;4.85;4.40;;;;;;;30.94;55.99;100968.25;5079486;27;70159;-36
2022/02/05 00:38:52;;;;;;;9.90;6.63;;;;;;;31.30;53.98;101029.09;5078352;28;65642;-34
2022/02/05 00:43:59;;;;;;;9.05;7.35;;;;;;;31.35;53.88;101037.38;5079874;27;65311;-34
2022/02/05 00:46:37;;;;;;;8.13;7.35;;;;;;;31.38;54.13;101050.53;5057286;28;70579;-34
2022/02/05 00:49:08;;;;;;;7.18;6.57;;;;;;;31.40;54.14;101053.88;5060109;28;66292;-35
2022/02/05 00:54:40;;;;;;;8.45;7.70;;;;;;;31.39;53.81;101057.59;5072113;27;67932;-36
2022/02/05 00:59:50;;;;;;;9.45;8.52;;;;;;;31.43;54.44;101058.84;5070012;28;64473;-35
2022/02/05 01:02:20;;;;;;;12.80;8.70;;;;;;;31.31;54.15;101042.41;5073600;27;69133;-35
2022/02/05 01:04:51;;;;;;;14.00;9.65;;;;;;;31.44;54.17;101055.06;5069612;28;66497;-35
2022/02/05 01:07:22;;;;;;;9.48;8.73;;;;;;;31.43;53.82;101064.25;5067516;28;69998;-35
2022/02/05 01:09:52;;;;;;;8.75;7.90;;;;;;;31.42;54.02;101062.59;5068241;28;66241;-39
2022/02/05 01:12:25;;;;;;;10.55;8.77;;;;;;;31.44;54.33;101059.66;5067780;28;69855;-35
2022/02/05 01:14:58;;;;;;;12.45;8.35;;;;;;;31.43;54.46;101075.09;5069014;27;66381;-35
2022/02/05 01:17:41;;;;;;;9.80;8.90;;;;;;;31.44;54.13;101087.59;5066802;27;69494;-35
2022/02/05 01:22:53;;;;;;;9.80;8.90;;;;;;;31.46;54.02;101095.53;5066476;27;70366;-36
2022/02/05 01:25:29;;;;;;;9.45;8.57;;;;;;;31.45;54.23;101094.66;5079002;27;66366;-36
2022/02/05 01:28:07;;;;;;;9.15;8.30;;;;;;;31.47;53.91;101100.72;5070110;28;69160;-36
2022/02/05 01:30:42;;;;;;;8.15;7.60;;;;;;;31.50;54.09;101096.72;5073754;28;66014;-36
2022/02/05 01:33:40;;;;;;;9.57;8.55;;;;;;;31.49;53.99;101101.34;5074598;28;70248;-35
2022/02/05 01:36:25;;;;;;;9.45;8.52;;;;;;;31.48;53.44;101107.81;5090992;27;65659;-35
2022/02/05 01:58:36;;;;;;;8.20;7.15;;;;;;;31.50;53.46;101113.81;5073506;28;66262;-36
2022/02/05 02:12:10;;;;;;;6.78;6.38;;;;;;;31.56;52.92;101123.78;5066961;28;69387;-36
2022/02/05 02:17:28;;;;;;;7.53;6.93;;;;;;;31.55;52.95;101121.31;5064829;28;70340;-36
2022/02/05 02:25:59;;;;;;;7.35;6.75;;;;;;;31.59;52.79;101131.50;5064817;28;65827;-35
2022/02/05 02:28:11;;;;;;;7.10;6.60;;;;;;;31.61;53.04;101131.28;5064175;28;69141;-35
2022/02/05 02:30:53;;;;;;;7.55;7.05;;;;;;;31.63;52.99;101122.94;5071757;28;66149;-35
2022/02/05 02:33:31;;;;;;;7.50;6.80;;;;;;;31.62;53.05;101122.09;5075823;27;69835;-36
2022/02/05 02:36:03;;;;;;;7.22;6.68;;;;;;;31.65;52.77;101126.25;5073265;27;65987;-35
2022/02/05 02:38:40;;;;;;;;;;;;;;;31.39;52.89;101122.66;5071219;28;70188;-35
2022/02/05 02:41:18;;;;;;;6.90;6.28;;;;;;;31.65;52.63;101120.81;5065722;27;65576;-35
2022/02/05 02:43:48;;;;;;;7.45;6.75;;;;;;;31.64;52.74;101113.75;5067553;27;70344;-35
2022/02/05 02:46:19;;;;;;;7.47;6.78;;;;;;;31.68;52.22;101120.38;5077839;27;66090;-35
2022/02/05 02:48:50;;;;;;;6.72;6.18;;;;;;;31.66;52.43;101117.91;5075540;27;70295;-34
2022/02/05 02:57:15;;;;;;;5.60;5.10;;;;;;;31.66;50.14;101122.50;5068742;27;65951;-35
2022/02/05 02:59:55;;;;;;;5.65;4.82;;;;;;;31.68;50.46;101129.38;5075414;27;70292;-35
2022/02/05 03:02:27;;;;;;;6.13;4.93;;;;;;;31.70;50.48;101121.00;5063705;28;66310;-36
2022/02/05 03:04:57;;;;;;;;;;;;;;;31.44;51.10;101120.13;5077390;27;70180;-40
2022/02/05 03:07:27;;;;;;;8.63;5.88;;;;;;;31.70;51.48;101112.84;5073533;28;66310;-35
2022/02/05 03:09:58;;;;;;;6.80;5.97;;;;;;;31.73;51.39;101112.41;5064136;27;70719;-35
2022/02/05 03:12:29;;;;;;;7.85;5.18;;;;;;;31.76;51.10;101117.38;5077702;28;65879;-35
2022/02/05 03:14:59;;;;;;;8.15;5.30;;;;;;;31.71;51.06;101104.50;5068257;28;69195;-35
2022/02/05 03:17:40;;;;;;;7.25;4.63;;;;;;;31.80;51.25;101108.59;5066121;28;65357;-35
2022/02/05 03:20:11;;;;;;;7.00;5.68;;;;;;;31.81;51.13;101109.44;5084380;27;70255;-35
2022/02/05 03:22:42;;;;;;;5.55;5.15;;;;;;;31.70;51.23;101091.97;5083006;27;66257;-35
2022/02/05 03:25:13;;;;;;;7.55;5.53;;;;;;;31.82;51.24;101101.09;5075641;27;70502;-36
2022/02/05 03:27:43;;;;;;;5.72;5.22;;;;;;;31.85;51.19;101110.66;5073448;28;65701;-35
2022/02/05 03:30:14;;;;;;;6.13;5.45;;;;;;;31.88;51.00;101107.50;5070418;27;70422;-35
2022/02/05 03:32:44;;;;;;;7.97;5.30;;;;;;;31.88;51.38;101104.78;5074703;28;66066;-36
2022/02/05 03:35:15;;;;;;;6.50;5.43;;;;;;;31.88;51.05;101096.66;5065040;27;69196;-36
2022/02/05 03:37:46;;;;;;;5.43;5.03;;;;;;;31.91;51.05;101093.53;5096517;27;66660;-36
2022/02/05 03:40:17;;;;;;;5.60;5.10;;;;;;;31.93;51.25;101096.84;5072459;28;70705;-35
2022/02/05 03:42:48;;;;;;;5.45;5.03;;;;;;;31.96;51.45;101099.13;5072590;28;66040;-35
2022/02/05 03:45:18;;;;;;;5.43;5.07;;;;;;;31.96;51.02;101090.97;5066594;28;70091;-34
2022/02/05 03:47:51;;;;;;;5.57;5.07;;;;;;;31.97;51.21;101087.19;5074678;27;65513;-36
2022/02/05 03:50:21;;;;;;;6.13;5.53;;;;;;;31.99;50.92;101078.84;5064929;28;69965;-36
2022/02/05 03:52:52;;;;;;;5.45;5.05;;;;;;;31.84;51.32;101054.72;5073929;27;66405;-35
2022/02/05 03:55:24;;;;;;;5.40;5.00;;;;;;;31.98;51.02;101067.16;5076927;27;70182;-35
2022/02/05 03:57:54;;;;;;;5.13;4.78;;;;;;;32.00;51.15;101075.91;5069506;27;65743;-35
2022/02/05 04:00:24;;;;;;;5.75;5.35;;;;;;;32.03;51.07;101080.88;5069390;28;70644;-35
2022/02/05 04:02:58;;;;;;;5.18;4.82;;;;;;;32.07;50.83;101075.00;5075784;27;66322;-36
2022/02/05 04:05:29;;;;;;;5.68;5.28;;;;;;;32.05;51.08;101062.50;5087729;27;69703;-36
2022/02/05 04:08:00;;;;;;;5.38;4.97;;;;;;;32.11;51.00;101059.94;5067564;27;66818;-35
2022/02/05 04:10:38;;;;;;;5.00;4.60;;;;;;;32.12;50.55;101069.72;5073852;28;70186;-35
2022/02/05 04:16:23;;;;;;;4.78;4.43;;;;;;;32.16;50.92;101060.94;5078404;28;70087;-36
2022/02/05 04:18:59;;;;;;;4.88;4.57;;;;;;;32.18;50.62;101055.25;5075480;27;66319;-36
2022/02/05 04:21:31;;;;;;;5.32;4.55;;;;;;;32.22;50.30;101056.47;5063191;28;69931;-36
2022/02/05 04:24:03;;;;;;;5.18;4.88;;;;;;;32.23;50.28;101052.69;5068887;28;65505;-35
2022/02/05 04:26:34;;;;;;;;;;;;;;;31.99;50.85;101047.13;5070577;28;69181;-35
2022/02/05 04:29:08;;;;;;;4.78;4.43;;;;;;;32.25;50.18;101048.72;5064236;27;67181;-36
2022/02/05 04:31:39;;;;;;;5.03;4.63;;;;;;;32.29;50.42;101043.69;5077898;28;70292;-35
2022/02/05 04:34:10;;;;;;;5.30;4.90;;;;;;;32.29;50.26;101040.97;5069617;28;64256;-35
2022/02/05 04:36:41;;;;;;;4.90;4.60;;;;;;;32.33;50.12;101035.91;5066420;28;69435;-35
2022/02/05 04:39:15;;;;;;;5.35;4.93;;;;;;;32.35;50.31;101033.78;5072778;28;66165;-40
2022/02/05 04:41:54;;;;;;;6.20;4.85;;;;;;;32.37;49.87;101028.94;5075752;28;70136;-35
2022/02/05 04:52:50;;;;;;;5.00;4.65;;;;;;;32.44;50.25;101011.53;5074008;27;69474;-35
2022/02/05 04:55:44;;;;;;;4.97;4.68;;;;;;;32.44;49.94;100997.13;5068629;27;65994;-35
2022/02/05 05:06:25;;;;;;;5.00;4.60;;;;;;;32.47;50.15;100988.56;5073240;27;66558;-35
2022/02/05 05:11:44;;;;;;;5.40;5.03;;;;;;;32.46;49.94;100976.88;5074000;27;66298;-35
2022/02/05 05:19:46;;;;;;;4.72;4.43;;;;;;;32.48;49.72;100963.91;5071698;28;70164;-35
2022/02/05 05:22:17;;;;;;;6.07;4.85;;;;;;;32.53;49.29;100962.38;5067587;28;66043;-36
2022/02/05 05:24:47;;;;;;;5.32;4.72;;;;;;;32.53;49.54;100955.03;5070495;28;69393;-36
2022/02/05 05:27:18;;;;;;;4.93;4.53;;;;;;;32.55;49.30;100961.09;5069515;28;65969;-36
2022/02/05 05:29:48;;;;;;;4.97;4.68;;;;;;;32.43;48.89;100942.00;5077549;27;69939;-35
2022/02/05 05:32:20;;;;;;;5.75;4.57;;;;;;;32.49;49.42;100940.28;5080478;27;66731;-36
2022/02/05 05:34:50;;;;;;;5.28;4.88;;;;;;;32.46;49.79;100928.00;5069863;28;70172;-36
2022/02/05 05:37:22;;;;;;;4.97;4.68;;;;;;;32.53;49.43;100946.91;5060144;28;65721;-36
2022/02/05 05:39:53;;;;;;;;;;;;;;;32.32;49.60;100942.78;5071645;27;69819;-35
2022/02/05 05:42:27;;;;;;;;;;;;;;;32.30;49.78;100934.03;5074493;27;65401;-36
2022/02/05 05:49:59;;;;;;;;;;;;;;;32.33;50.02;100922.72;5070680;28;69848;-35
2022/02/05 05:52:29;;;;;;;;;;;;;;;32.34;50.06;100918.94;5070338;28;66664;-36
2022/02/05 05:55:00;;;;;;;;;;;;;;;32.35;49.92;100912.47;5061020;28;70011;-35
2022/02/05 05:57:30;;;;;;;;;;;;;;;32.38;50.07;100903.03;5068998;28;66819;-36
2022/02/05 05:59:59;;;;;;;;;;;;;;;32.38;49.34;100897.59;5071408;28;69181;-36
2022/02/05 06:02:33;;;;;;;;;;;;;;;32.39;49.40;100894.63;5085881;27;66132;-36
2022/02/05 06:05:03;;;;;;;;;;;;;;;32.41;49.21;100891.72;5091660;27;70512;-36
2022/02/05 06:07:33;;;;;;;;;;;;;;;32.44;48.86;100886.63;5078185;27;65143;-36
2022/02/05 06:10:03;;;;;;;;;;;;;;;32.46;49.17;100875.59;5071700;27;70381;-36
2022/02/05 06:12:33;;;;;;;;;;;;;;;32.48;49.01;100866.16;5083026;27;66723;-36
2022/02/05 06:15:06;;;;;;;;;;;;;;;32.49;48.98;100865.09;5076204;27;69462;-36
2022/02/05 06:17:37;;;;;;;;;;;;;;;32.53;49.18;100861.91;5070396;27;65997;-35
2022/02/05 06:20:08;;;;;;;;;;;;;;;32.54;49.34;100847.25;5067440;28;70311;-36
2022/02/05 06:22:38;;;;;;;;;;;;;;;32.56;49.07;100842.44;5069595;27;65125;-36
2022/02/05 06:25:08;;;;;;;;;;;;;;;32.58;49.22;100837.59;5083609;27;70229;-36
2022/02/05 06:27:39;;;;;;;;;;;;;;;32.60;49.00;100840.91;5073053;27;67978;-35
2022/02/05 06:30:09;;;;;;;;;;;;;;;32.61;49.25;100832.50;5068354;27;70317;-36
2022/02/05 06:32:41;;;;;;;;;;;;;;;32.63;49.17;100824.16;5069977;28;65468;-36
2022/02/05 06:35:11;;;;;;;;;;;;;;;32.64;49.01;100820.38;5068109;28;70247;-35
2022/02/05 06:37:42;;;;;;;;;;;;;;;32.66;49.49;100813.63;5073019;28;65379;-36
2022/02/05 06:40:12;;;;;;;;;;;;;;;32.67;49.05;100814.47;5065651;27;70008;-35
2022/02/05 06:42:46;;;;;;;;;;;;;;;32.69;48.89;100806.91;5076339;28;66876;-36
2022/02/05 06:45:16;;;;;;;;;;;;;;;32.71;49.10;100805.63;5078331;28;69394;-36
2022/02/05 06:47:46;;;;;;;;;;;;;;;32.73;49.09;100789.06;5069872;28;66384;-37
2022/02/05 06:50:16;;;;;;;;;;;;;;;32.75;49.26;100795.09;5072437;28;70873;-36
2022/02/05 06:52:46;;;;;;;;;;;;;;;32.76;49.09;100788.59;5072071;28;66063;-36
2022/02/05 06:55:16;;;;;;;;;;;;;;;32.78;47.51;100789.19;5071316;27;69973;-36
2022/02/05 06:57:46;;;;;;;;;;;;;;;32.79;48.57;100784.59;5067017;28;66010;-36
2022/02/05 07:00:16;;;;;;;;;;;;;;;32.81;47.71;100777.84;5088336;27;69272;-36
2022/02/05 07:02:46;;;;;;;;;;;;;;;32.84;47.60;100777.38;5073959;28;65720;-35
2022/02/05 07:05:16;;;;;;;;;;;;;;;32.86;47.98;100777.97;5075836;28;70482;-36
2022/02/05 07:07:46;;;;;;;;;;;;;;;32.88;48.25;100778.56;5076983;27;65490;-36
2022/02/05 07:10:16;;;;;;;;;;;;;;;32.92;48.06;100763.44;5072749;28;70014;-36
2022/02/05 07:15:39;;;;;;;;;;;;;;;32.96;47.99;100752.09;5069521;28;69862;-36
2022/02/05 07:20:49;;;;;;;;;;;;;;;33.00;47.90;100746.00;5073929;28;69339;-36
2022/02/05 07:31:26;;;;;;;;;;;;;;;33.10;48.30;100739.97;5072506;27;70495;-36
2022/02/05 07:33:56;;;;;;;;;;;;;;;33.11;48.31;100738.88;5079175;27;66311;-36
2022/02/05 07:36:25;;;;;;;;;;;;;;;33.13;48.22;100742.19;5073400;27;70071;-36
2022/02/05 07:38:55;;;;;;;;;;;;;;;33.15;48.14;100740.06;5081983;27;67958;-36
2022/02/05 07:41:25;;;;;;;;;;;;;;;33.17;48.31;100731.66;5076754;27;70530;-36
2022/02/05 07:43:55;;;;;;;;;;;;;;;33.18;47.84;100725.97;5076884;27;66325;-36
2022/02/05 07:46:26;;;;;;;;;;;;;;;33.21;48.08;100720.09;5084625;27;69385;-36
2022/02/05 07:48:56;;;;;;;;;;;;;;;33.23;48.05;100720.66;5077553;27;65920;-36
2022/02/05 07:51:26;;;;;;;;;;;;;;;33.24;47.90;100727.75;5090849;27;69894;-35
2022/02/05 07:53:56;;;;;;;;;;;;;;;33.28;47.91;100719.94;5084204;27;66810;-35
2022/02/05 07:56:27;;;;;;;;;;;;;;;33.31;48.12;100714.03;5075800;27;69632;-35
2022/02/05 07:58:57;;;;;;;;;;;;;;;33.31;48.02;100717.56;5073923;27;66030;-35
2022/02/05 08:01:28;;;;;;;;;;;;;;;33.34;48.04;100711.63;5074545;28;70129;-35
2022/02/05 08:03:58;;;;;;;;;;;;;;;33.36;47.58;100719.56;5078992;27;66556;-35
2022/02/05 08:06:28;;;;;;;;;;;;;;;33.38;45.10;100718.25;5062541;28;69013;-35
2022/02/05 08:09:02;;;;;;;;;;;;;;;33.42;44.54;100718.59;5071374;28;66051;-36
2022/02/05 08:11:45;;;;;;;;;;;;;;;33.46;45.28;100718.94;5070646;27;70762;-36
2022/02/05 08:14:15;;;;;;;;;;;;;;;33.48;45.39;100716.81;5084514;27;67615;-36
2022/02/05 08:16:50;;;;;;;;;;;;;;;33.51;45.79;100722.56;5070881;28;70365;-36
2022/02/05 08:19:20;;;;;;;;;;;;;;;33.53;45.82;100725.09;5069161;28;66736;-36
2022/02/05 08:22:10;;;;;;;;;;;;;;;33.54;46.05;100716.72;5073381;27;70247;-35
2022/02/05 08:24:40;;;;;;;;;;;;;;;33.56;46.38;100719.16;5069475;28;66259;-37
2022/02/05 08:27:10;;;;;;;;;;;;;;;33.57;46.64;100718.09;5070397;28;69933;-35
2022/02/05 08:30:07;;;;;;;;;;;;;;;33.57;46.49;100724.38;5074087;28;66041;-35
2022/02/05 08:32:32;;;;;;;;;;;;;;;33.59;46.78;100718.69;5077896;28;70274;-35
2022/02/05 08:35:05;;;;;;;;;;;;;;;33.61;46.89;100729.31;5069811;28;66613;-35
2022/02/05 08:37:36;;;;;;;;;;;;;;;33.63;46.98;100722.59;5073078;28;70027;-35
2022/02/05 08:40:06;;;;;;;;;;;;;;;33.64;47.12;100721.50;5072177;28;66468;-35
2022/02/05 08:42:36;;;;;;;;;;;;;;;33.66;47.24;100719.38;5072300;28;69593;-36
2022/02/05 08:45:07;;;;;;;;;;;;;;;33.68;47.25;100719.94;5065342;28;65285;-37
2022/02/05 08:47:36;;;;;;;;;;;;;;;33.70;47.18;100717.81;5067267;28;69561;-36
2022/02/05 08:50:06;;;;;;;;;;;;;;;33.72;47.34;100723.84;5073627;28;66141;-36
2022/02/05 08:52:39;;;;;;;;;;;;;;;33.74;47.30;100724.41;5070239;27;69797;-35
2022/02/05 08:55:09;;;;;;;;;;;;;;;33.78;47.37;100717.41;5070974;27;65505;-35
2022/02/05 08:57:40;;;;;;;;;;;;;;;33.81;47.31;100727.81;5074500;27;69309;-36
2022/02/05 09:00:15;;;;;;;;;;;;;;;33.83;47.50;100726.75;5070765;27;65980;-37
2022/02/05 09:02:55;;;;;;;;;;;;;;;33.85;47.30;100732.75;5077052;28;69876;-36
2022/02/05 09:05:44;;;;;;;;;;;;;;;33.87;47.33;100730.63;5067655;28;66970;-36
2022/02/05 09:08:25;;;;;;;;;;;;;;;33.88;47.32;100719.50;5070716;27;70060;-36
2022/02/05 09:11:13;;;;;;;;;;;;;;;33.90;47.55;100724.69;5074939;28;66610;-36
2022/02/05 09:16:14;;;;;;;;;;;;;;;33.94;47.26;100737.56;5075802;27;66246;-36
2022/02/05 09:18:45;;;;;;;;;;;;;;;33.98;47.51;100737.91;5073261;27;67989;-36
2022/02/05 09:21:15;;;;;;;;;;;;;;;34.01;47.61;100731.97;5064150;27;66013;-36
2022/02/05 09:23:47;;;;;;;;;;;;;;;34.04;47.65;100734.19;5080077;27;70678;-37
2022/02/05 09:26:17;;;;;;;;;;;;;;;34.05;47.52;100741.34;5069921;28;65458;-36
2022/02/05 09:28:48;;;;;;;;;;;;;;;34.07;47.43;100741.06;5083927;27;70407;-35
2022/02/05 09:31:30;;;;;;;;;;;;;;;34.07;47.41;100741.88;5064970;27;66260;-35
2022/02/05 09:34:00;;;;;;;;;;;;;;;34.09;47.22;100745.19;5072748;28;69481;-37
2022/02/05 09:36:31;;;;;;;;;;;;;;;34.11;47.26;100740.34;5070905;28;66728;-35
2022/02/05 09:39:01;;;;;;;;;;;;;;;34.13;47.22;100746.38;5070124;28;69272;-35
2022/02/05 09:41:31;;;;;;;;;;;;;;;34.13;47.06;100751.81;5067901;28;65383;-35
2022/02/05 09:44:00;;;;;;;;;;;;;;;34.15;47.10;100748.84;5068590;27;70008;-35
2022/02/05 09:46:31;;;;;;;;;;;;;;;34.16;47.09;100759.50;5067098;28;66401;-35
2022/02/05 09:49:02;;;;;;;;;;;;;;;34.17;46.98;100752.16;5066060;28;69696;-36
2022/02/05 09:51:35;;;;;;;;;;;;;;;34.17;47.37;100761.13;5070144;28;65891;-36
2022/02/05 09:54:05;;;;;;;;;;;;;;;34.17;47.40;100763.84;5069111;27;69186;-35
2022/02/05 09:56:38;;;;;;;;;;;;;;;34.18;47.81;100767.41;5068141;28;66406;-34
2022/02/05 09:59:08;;;;;;;;;;;;;;;34.19;47.95;100777.22;5074263;27;70447;-36
2022/02/05 10:01:39;;;;;;;;;;;;;;;34.19;47.96;100788.94;5083722;27;66540;-37
2022/02/05 10:04:12;;;;;;;;;;;;;;;34.19;48.05;100788.13;5071123;27;68135;-35
2022/02/05 10:06:47;;;;;;;;;;;;;;;34.18;48.00;100778.28;5071827;27;66315;-36
2022/02/05 10:09:17;;;;;;;;;;;;;;;34.18;47.93;100787.28;5067291;28;71191;-35
2022/02/05 10:11:52;;;;;;;;;;;;;;;34.18;48.13;100791.91;5062445;28;66694;-35
2022/02/05 10:14:23;;;;;;;;;;;;;;;34.17;47.81;100791.06;5072383;28;70534;-35
2022/02/05 10:16:56;;;;;;;;;;;;;;;34.16;47.88;100797.59;5069795;27;67337;-35
2022/02/05 10:19:45;;;;;;;;;;;;;;;34.15;48.04;100798.66;5078300;27;70611;-36
2022/02/05 10:22:15;;;;;;;;;;;;;;;34.14;48.06;100794.28;5076012;28;66175;-35
2022/02/05 10:24:51;;;;;;;;;;;;;;;34.15;48.04;100801.38;5070559;27;68977;-36
2022/02/05 10:27:32;;;;;;;;;;;;;;;34.13;47.85;100799.97;5058149;28;66039;-35
2022/02/05 10:30:07;;;;;;;;;;;;;;;34.11;48.24;100800.22;5075298;28;69917;-36
2022/02/05 10:32:42;;;;;;;;;;;;;;;34.10;48.16;100806.75;5073503;28;66601;-35
2022/02/05 10:35:24;;;;;;;;;;;;;;;34.07;48.34;100807.22;5070182;27;70351;-36
2022/02/05 10:38:15;;;;;;;;;;;;;;;34.06;48.39;100797.41;5074121;27;66810;-35
2022/02/05 10:40:48;;;;;;;;;;;;;;;34.05;48.63;100798.50;5074690;28;70059;-35
2022/02/05 10:43:31;;;;;;;;;;;;;;;34.03;48.71;100808.75;5068104;28;66808;-36
2022/02/05 10:46:02;;;;;;;;;;;;;;;34.01;48.87;100808.16;5076525;28;69825;-36
2022/02/05 10:48:41;;;;;;;;;;;;;;;33.99;48.86;100804.84;5078617;28;65398;-35
2022/02/05 10:51:13;;;;;;;;;;;;;;;33.96;49.16;100810.78;5068802;28;70641;-36
2022/02/05 10:53:52;;;;;;;;;;;;;;;33.94;48.98;100818.38;5066071;27;66720;-36
2022/02/05 10:56:37;;;;;;;;;;;;;;;33.90;49.54;100819.94;5068863;27;70253;-35
2022/02/05 10:59:17;;;;;;;;;;;;;;;33.88;49.59;100827.50;5070647;28;66054;-35
2022/02/05 11:07:35;;;;;;;;;;;;;;;33.81;49.86;100846.69;5070159;27;69942;-36
2022/02/05 11:10:06;;;;;;;;;;;;;;;33.78;49.88;100837.13;5064431;27;66392;-35
2022/02/05 11:12:48;;;;;;;;;;;;;;;33.76;49.98;100841.97;5046736;28;69671;-35
2022/02/05 11:20:39;;;;;;;;;;;;;;;33.70;50.10;100861.16;5070442;27;66510;-36
2022/02/05 11:23:11;;;;;;;;;;;;;;;33.68;50.08;100864.09;5065753;27;70416;-35
2022/02/05 11:25:41;;;;;;;;;;;;;;;33.65;50.24;100858.31;5066381;28;67956;-35
2022/02/05 11:28:12;;;;;;;;;;;;;;;33.53;50.24;100842.03;5064288;27;70722;-35
2022/02/05 11:30:43;;;;;;;;;;;;;;;33.63;50.33;100861.31;5070913;28;65094;-35
2022/02/05 11:33:21;;;;;;;;;;;;;;;33.61;50.42;100874.31;5076803;27;68850;-36
2022/02/05 11:38:29;;;;;;;;;;;;;;;33.58;50.41;100880.22;5070227;28;70745;-36
2022/02/05 11:40:59;;;;;;;;;;;;;;;33.55;50.58;100869.81;5063305;28;64991;-36
2022/02/05 11:43:36;;;;;;;;;;;;;;;33.55;50.74;100875.25;5064784;28;70263;-35
2022/02/05 11:46:11;;;;;;;;;;;;;;;33.53;50.90;100872.78;5066309;28;67075;-35
2022/02/05 11:48:42;;;;;;;;;;;;;;;33.53;50.92;100871.94;5064849;28;70085;-36
2022/02/05 11:51:30;;;;;;;;;;;;;;;33.50;50.98;100866.97;5073864;27;65123;-36
2022/02/05 11:54:09;;;;;;;;;;;;;;;33.48;51.25;100872.63;5071249;28;69400;-34
2022/02/05 11:57:01;;;;;;;;;;;;;;;33.46;51.10;100876.66;5065881;28;66216;-36
2022/02/05 11:59:50;;;;;;;;;;;;;;;33.44;51.36;100878.78;5067270;27;70397;-36
2022/02/05 12:02:22;;;;;;;;;;;;;;;33.42;51.29;100881.75;5074488;27;65962;-36
2022/02/05 12:05:10;;;;;;;;;;;;;;;33.40;51.59;100875.72;5070796;28;69066;-36
2022/02/05 12:07:58;;;;;;;;;;;;;;;33.38;51.80;100878.69;5070492;28;66500;-35
2022/02/05 12:10:34;;;;;;;;;;;;;;;33.36;51.75;100877.25;5076635;27;69986;-35
2022/02/05 12:13:17;;;;;;;;;;;;;;;33.35;51.89;100881.88;5072475;27;65787;-35
2022/02/05 12:15:49;;;;;;;;;;;;;;;33.33;51.93;100888.59;5067228;28;69524;-37
2022/02/05 12:18:23;;;;;;;;;;;;;;;33.33;51.93;100888.59;5057904;28;65246;-35
2022/02/05 12:26:17;;;;;;;;;;;;;;;33.29;52.08;100910.03;5078076;27;70700;-36
2022/02/05 12:28:50;;;;;;;;;;;;;;;33.29;51.91;100907.28;5069740;27;65479;-35
2022/02/05 12:31:28;;;;;;;;;;;;;;;33.30;51.93;100916.28;5073815;28;70241;-37
2022/02/05 12:34:01;;;;;;;;;;;;;;;33.28;52.21;100908.34;5069081;28;65723;-37
2022/02/05 12:36:42;;;;;;;;;;;;;;;33.29;52.01;100920.88;5086424;27;70608;-35
2022/02/05 12:39:17;;;;;;;;;;;;;;;33.28;51.94;100921.94;5073725;28;67109;-36
2022/02/05 12:41:49;;;;;;;;;;;;;;;33.28;52.01;100927.38;5069894;27;70133;-37
2022/02/05 12:44:23;;;;;;;;;;;;;;;33.27;51.90;100936.59;5071880;27;66668;-37
2022/02/05 12:46:59;;;;;;;;;;;;;;;33.26;51.86;100932.22;5071430;27;70572;-37
2022/02/05 12:49:36;;;;;;;;;;;;;;;33.25;51.84;100941.44;5073527;27;66266;-36
2022/02/05 12:52:07;;;;;;;;;;;;;;;33.24;52.04;100942.50;5072243;28;68891;-36
2022/02/05 12:54:43;;;;;;;;;;;;;;;33.23;51.81;100953.59;5077416;28;65417;-36
2022/02/05 12:57:16;;;;;;;;;;;;;;;33.22;52.12;100960.94;5074537;27;69082;-36
2022/02/05 12:59:46;;;;;;;;;;;;;;;33.22;51.94;100960.94;5077015;28;66456;-36
2022/02/05 13:02:17;;;;;;;;;;;;;;;33.20;52.28;100954.91;5078647;27;70350;-36
2022/02/05 13:04:53;;;;;;;;;;;;;;;33.19;52.10;100955.97;5062833;28;66222;-39
2022/02/05 13:07:27;;;;;;;;;;;;;;;33.18;52.31;100953.47;5060311;28;70646;-36
2022/02/05 13:10:04;;;;;;;;;;;;;;;33.17;52.14;100960.81;5072545;28;66105;-36
2022/02/05 13:12:39;;;;;;;;;;;;;;;33.15;52.09;100974.66;5068568;28;69781;-37
2022/02/05 13:15:22;;;;;;;;;;;;;;;33.17;52.14;100970.88;5077810;27;65604;-37
2022/02/05 13:34:30;;;;;;;;;;;;;;;33.06;52.25;100991.50;5077893;28;69348;-36
2022/02/05 13:37:24;;;;;;;;;;;;;;;33.07;52.29;100995.88;5077861;27;65392;-36
2022/02/05 13:40:01;;;;;;;;;;;;;;;33.04;52.24;100994.47;5074697;28;69341;-37
2022/02/05 13:42:35;;;;;;;;;;;;;;;33.03;52.49;100992.81;5078243;27;65946;-36
2022/02/05 13:45:19;;;;;;;;;;;;;;;33.03;52.35;100991.97;5070029;27;69364;-36
2022/02/05 13:47:51;;;;;;;;;;;;;;;33.00;52.19;100993.28;5070448;28;65804;-36
2022/02/05 13:50:23;;;;;;;;;;;;;;;33.00;52.33;100995.16;5074372;28;70110;-36
2022/02/05 13:52:54;;;;;;;;;;;;;;;32.99;52.18;100996.19;5073768;28;65393;-36
2022/02/05 13:55:37;;;;;;;;;;;;;;;32.98;52.17;100987.19;5066303;27;69416;-36
2022/02/05 13:58:09;;;;;;;;;;;;;;;32.97;52.38;100991.00;5076765;28;66583;-36
2022/02/05 14:00:42;;;;;;;;;;;;;;;32.97;52.31;100995.59;5090933;27;68055;-36
2022/02/05 14:03:16;;;;;;;;;;;;;;;32.96;52.25;100993.94;5072366;28;65813;-35
2022/02/05 14:06:02;;;;;;;;;;;;;;;32.96;52.44;100996.66;5078543;28;69158;-36
2022/02/05 14:08:35;;;;;;;;;;;;;;;32.94;52.36;101008.59;5074595;28;65960;-36
2022/02/05 14:11:07;;;;;;;;;;;;;;;32.93;52.36;101003.38;5077486;28;69737;-36
2022/02/05 14:13:37;;;;;;;;;;;;;;;32.92;52.08;101012.59;5077595;27;66348;-42
2022/02/05 14:16:08;;;;;;;;;;;;;;;32.92;52.17;101012.59;5070771;28;70592;-37
2022/02/05 14:18:48;;;;;;;;;;;;;;;32.90;52.36;101012.84;5072717;27;66009;-36
2022/02/05 14:21:29;;;;;;;;;;;;;;;32.90;52.67;101012.84;5073057;28;70306;-36
2022/02/05 14:23:59;;;;;;;;;;;;;;;32.89;52.30;101013.06;5073638;27;65668;-36
2022/02/05 14:26:33;;;;;;;;;;;;;;;32.88;52.13;101003.25;5072162;27;70616;-36
2022/02/05 14:29:04;;;;;;;;;;;;;;;32.86;52.27;101003.47;5067360;28;66032;-36
2022/02/05 14:31:45;;;;;;;;;;;;;;;32.86;52.31;101003.47;5071524;28;69326;-37
2022/02/05 14:40:26;;;;;;;;;;;;;;;32.85;52.30;101022.75;5073570;27;66503;-36
2022/02/05 14:42:56;;;;;;;;;;;;;;;32.84;52.31;101021.06;5070418;28;70006;-36
2022/02/05 14:45:26;;;;;;;;;;;;;;;32.81;52.33;101016.91;5072733;28;63947;-37
2022/02/05 14:47:56;;;;;;;;;;;;;;;32.81;52.40;101016.91;5074246;28;69807;-37
2022/02/05 14:50:26;;;;;;;;;;;;;;;32.80;52.51;101020.69;5065819;28;66578;-36
2022/02/05 14:52:56;;;;;;;;;;;;;;;32.80;52.58;101020.69;5053011;28;69961;-37
2022/02/05 14:55:27;;;;;;;;;;;;;;;32.79;52.40;101019.06;5075434;28;66949;-36
2022/02/05 14:57:57;;;;;;;;;;;;;;;32.78;52.41;101017.38;5078017;27;70229;-36
2022/02/05 15:00:27;;;;;;;;;;;;;;;32.78;52.33;101011.13;5070906;28;66788;-38
2022/02/05 15:02:57;;;;;;;;;;;;;;;32.77;52.30;101004.03;5075927;28;69857;-35
2022/02/05 15:05:27;;;;;;;;;;;;;;;32.76;52.47;101003.19;5079404;27;66564;-35
2022/02/05 15:07:57;;;;;;;;;;;;;;;32.75;52.36;101006.97;5071486;27;69915;-43
2022/02/05 15:10:27;;;;;;;;;;;;;;;32.75;52.48;101012.41;5079916;28;65687;-36
2022/02/05 15:12:57;;;;;;;;;;;;;;;32.74;52.72;100999.91;5077249;27;69277;-36
2022/02/05 15:15:28;;;;;;;;;;;;;;;32.72;52.43;101012.88;5071049;27;66381;-37
2022/02/05 15:17:59;;;;;;;;;;;;;;;32.71;52.44;101011.22;5070832;28;70255;-36
2022/02/05 15:20:29;;;;;;;;;;;;;;;32.69;52.40;101010.63;5074428;27;65360;-36
2022/02/05 15:23:00;;;;;;;;;;;;;;;32.69;52.38;101007.91;5070469;28;70314;-36
2022/02/05 15:25:30;;;;;;;;;;;;;;;32.68;52.46;101011.66;5075664;28;66577;-36
2022/02/05 15:28:01;;;;;;;;;;;;;;;32.68;52.23;101017.09;5073415;28;68595;-35
2022/02/05 15:30:31;;;;;;;;;;;;;;;32.67;52.55;101027.13;5068494;27;66898;-37
2022/02/05 15:33:03;;;;;;;;;;;;;;;32.65;52.43;101021.13;5077760;28;68941;-37
2022/02/05 15:35:34;;;;;;;;;;;;;;;32.64;52.46;101022.16;5073027;28;66446;-37
2022/02/05 15:38:12;;;;;;;;;;;;;;;32.64;52.48;101022.16;5072876;28;69903;-36
2022/02/05 15:43:53;;;;;;;;;;;;;;;32.63;52.36;101019.69;5033355;28;70702;-36
2022/02/05 15:46:23;;;;;;;;;;;;;;;32.61;52.35;101025.34;5033834;28;66120;-38
2022/02/05 15:48:53;;;;;;;;;;;;;;;32.60;52.27;101020.97;5060710;28;67908;-41
2022/02/05 15:51:26;;;;;;;;;;;;;;;32.59;52.20;101022.00;5088786;27;67093;-36